createdAt,value
2022-12-01T00:03:14.074Z,138.32177
2022-12-01T00:08:15.803Z,138.93671
2022-12-01T00:13:17.342Z,139.55556
2022-12-01T00:18:19.308Z,138.32177
2022-12-01T00:23:20.821Z,137.10345
2022-12-01T00:28:22.544Z,135.90031
2022-12-01T00:33:23.979Z,137.10345
2022-12-01T00:38:25.474Z,136.5
2022-12-01T00:43:27.174Z,132.95706
2022-12-01T00:48:28.710Z,136.5
2022-12-01T00:53:30.158Z,135.90031
2022-12-01T00:58:32.033Z,134.12346
2022-12-01T01:03:33.637Z,137.71069
2022-12-01T01:08:35.103Z,138.93671
2022-12-01T01:13:36.673Z,139.55556
2022-12-01T01:18:38.191Z,134.12346
2022-12-01T01:23:39.734Z,135.90031
2022-12-01T01:28:41.651Z,138.93671
2022-12-01T01:33:43.499Z,136.5
2022-12-01T01:38:45.002Z,140.80511
2022-12-01T01:43:46.680Z,137.71069
2022-12-01T01:48:48.246Z,140.80511
2022-12-01T01:53:49.793Z,137.71069
2022-12-01T01:58:51.660Z,137.71069
2022-12-01T02:03:53.343Z,134.71207
2022-12-01T02:08:55.073Z,132.3792
2022-12-01T02:13:57.067Z,130.66667
2022-12-01T02:18:58.868Z,132.95706
2022-12-01T02:24:00.704Z,122.03468
2022-12-01T02:29:02.734Z,131.23404
2022-12-01T02:34:04.561Z,132.95706
2022-12-01T02:39:06.111Z,134.71207
2022-12-01T02:44:07.967Z,130.10272
2022-12-01T02:49:09.538Z,126.78932
2022-12-01T02:54:11.231Z,126.24852
2022-12-01T02:59:13.112Z,124.11696
2022-12-01T03:04:14.585Z,123.06977
2022-12-01T03:09:16.410Z,122.55072
2022-12-01T03:14:18.033Z,123.59184
2022-12-01T03:19:19.895Z,123.06977
2022-12-01T03:24:21.654Z,121.52161
2022-12-01T03:29:23.768Z,124.64516
2022-12-01T03:34:25.576Z,124.64516
2022-12-01T03:39:27.212Z,122.55072
2022-12-01T03:44:28.985Z,126.78932
2022-12-01T03:49:30.787Z,121.52161
2022-12-01T03:54:32.552Z,115.58774
2022-12-01T03:59:34.474Z,124.11696
2022-12-01T04:04:36.056Z,123.06977
2022-12-01T04:09:37.569Z,123.59184
2022-12-01T04:14:39.372Z,122.03468
2022-12-01T04:19:40.972Z,123.06977
2022-12-01T04:24:42.495Z,122.55072
2022-12-01T04:29:44.290Z,123.06977
2022-12-01T04:34:46.233Z,124.11696
2022-12-01T04:39:48.449Z,120.5043
2022-12-01T04:44:50.339Z,115.11111
2022-12-01T04:49:52.289Z,116.54902
2022-12-01T04:54:54.166Z,117.52113
2022-12-01T04:59:56.116Z,119.49858
2022-12-01T05:04:57.865Z,108.70588
2022-12-01T05:09:59.727Z,122.03468
2022-12-01T05:15:01.514Z,120.5043
2022-12-01T05:20:03.301Z,137.10345
2022-12-01T05:25:05.062Z,132.95706
2022-12-01T05:30:07.188Z,142.70968
2022-12-01T05:35:09.032Z,151.40741
2022-12-01T05:40:10.898Z,140.17834
2022-12-01T05:45:12.927Z,147.97351
2022-12-01T05:50:14.509Z,145.96721
2022-12-01T05:55:16.273Z,167.18841
2022-12-01T06:00:18.618Z,160.90141
2022-12-01T06:05:20.138Z,172.99628
2022-12-01T06:10:21.934Z,184.625
2022-12-01T06:15:23.605Z,191.38956
2022-12-01T06:20:25.402Z,164.78853
2022-12-01T06:25:27.191Z,197.49794
2022-12-01T06:30:29.224Z,214.17544
2022-12-01T06:35:31.037Z,212.99563
2022-12-01T06:40:32.714Z,221.47748
2022-12-01T06:45:34.604Z,240.15385
2022-12-01T06:50:36.220Z,275.1828
2022-12-01T06:55:37.771Z,273.41176
2022-12-01T07:00:39.624Z,244.4878
2022-12-01T07:05:41.098Z,278.78261
2022-12-01T07:10:42.541Z,315.08434
2022-12-01T07:15:44.376Z,275.1828
2022-12-01T07:20:46.278Z,284.33149
2022-12-01T07:25:48.053Z,306.35294
2022-12-01T07:30:50.045Z,296
2022-12-01T07:35:51.837Z,292.0226
2022-12-01T07:40:53.515Z,312.86228
2022-12-01T07:45:55.478Z,329
2022-12-01T07:50:57.173Z,315.08434
2022-12-01T07:55:58.745Z,344
2022-12-01T08:01:02.177Z,384
2022-12-01T08:06:03.928Z,466.0339
2022-12-01T08:11:05.712Z,494
2022-12-01T08:16:07.657Z,519.70093
2022-12-01T08:21:09.446Z,572.57143
2022-12-01T08:26:11.224Z,504
2022-12-01T08:31:13.399Z,585.66667
2022-12-01T08:36:15.296Z,776.43243
2022-12-01T08:41:17.037Z,744
2022-12-01T08:46:19.018Z,695.21951
2022-12-01T08:51:20.890Z,686.16867
2022-12-01T08:56:22.651Z,891.69231
2022-12-01T09:01:25.092Z,542.05825
2022-12-01T09:06:26.812Z,553.90099
2022-12-01T09:11:28.605Z,811.60563
2022-12-01T09:16:30.567Z,799.55556
2022-12-01T09:21:32.428Z,1106.26415
2022-12-01T09:26:34.185Z,1106.26415
2022-12-01T09:31:35.981Z,2408
2022-12-01T09:36:37.643Z,3186.10526
2022-12-01T09:41:39.205Z,2510.66667
2022-12-01T09:46:40.773Z,3567.52941
2022-12-01T09:51:42.331Z,3794
2022-12-01T09:56:43.826Z,4682.46154
2022-12-01T10:01:46.213Z,5077.33333
2022-12-01T10:06:47.819Z,6788.44444
2022-12-01T10:11:49.487Z,7644
2022-12-01T10:16:51.024Z,4682.46154
2022-12-01T10:21:52.521Z,6104
2022-12-01T10:26:54.148Z,6788.44444
2022-12-01T10:31:56.028Z,8744
2022-12-01T10:36:57.669Z,5077.33333
2022-12-01T10:41:59.188Z,6104
2022-12-01T10:47:00.676Z,5077.33333
2022-12-01T10:52:02.203Z,4682.46154
2022-12-01T10:57:04.035Z,4344
2022-12-01T11:02:06.145Z,3186.10526
2022-12-01T11:07:08.005Z,1755.76471
2022-12-01T11:12:09.811Z,1312.88889
2022-12-01T11:17:11.532Z,2622.26087
2022-12-01T11:22:13.310Z,3794
2022-12-01T11:27:15.321Z,2877.33333
2022-12-01T11:32:17.412Z,3366.22222
2022-12-01T11:37:19.004Z,4344
2022-12-01T11:42:20.723Z,2622.26087
2022-12-01T11:47:24.336Z,2225.48148
2022-12-01T11:52:27.121Z,1997.33333
2022-12-01T11:57:39.169Z,1755.76471
2022-12-01T12:02:41.016Z,1446.43902
2022-12-01T12:07:42.702Z,1024.70175
2022-12-01T12:12:44.420Z,863.40299
2022-12-01T12:17:46.287Z,953.83607
2022-12-01T12:22:53.783Z,1283.13043
2022-12-01T12:27:57.270Z,877.33333
2022-12-01T12:32:59.354Z,765.33333
2022-12-01T12:38:01.155Z,644
2022-12-01T12:43:02.905Z,542.05825
2022-12-01T12:48:05.082Z,677.33333
2022-12-01T12:53:06.886Z,849.88235
2022-12-01T12:58:11.334Z,787.83562
2022-12-01T13:03:16.207Z,266.51309
2022-12-01T13:08:18.029Z,244.4878
2022-12-01T13:13:19.834Z,754.52632
2022-12-01T13:18:21.887Z,787.83562
2022-12-01T13:23:23.656Z,953.83607
2022-12-01T13:28:25.619Z,1254.6383
2022-12-01T13:33:29.237Z,1376.55814
2022-12-01T13:38:31.078Z,1704
2022-12-01T13:43:33.091Z,1704
2022-12-01T13:48:34.919Z,1283.13043
2022-12-01T13:53:36.760Z,1655.11111
2022-12-01T13:58:38.353Z,2622.26087
2022-12-01T14:08:50.989Z,1869
2022-12-01T14:13:52.727Z,1810.66667
2022-12-01T14:18:54.501Z,877.33333
2022-12-01T14:23:56.377Z,536.30769
2022-12-01T14:28:58.158Z,484.35088
2022-12-01T14:33:59.887Z,436.8
2022-12-01T14:39:01.873Z,704.49383
2022-12-01T14:44:03.608Z,849.88235
2022-12-01T14:49:05.184Z,1151.84314
2022-12-01T14:54:06.940Z,776.43243
2022-12-01T14:59:08.624Z,1024.70175
2022-12-01T15:04:10.312Z,877.33333
2022-12-01T15:09:32.980Z,723.74684
2022-12-01T15:14:37.058Z,644
2022-12-01T15:19:40.293Z,765.33333
2022-12-01T15:24:41.984Z,695.21951
2022-12-01T15:29:43.601Z,599.31915
2022-12-01T15:34:45.140Z,579.05155
2022-12-01T15:39:46.886Z,504
2022-12-01T15:44:48.737Z,484.35088
2022-12-01T15:49:50.623Z,403.70149
2022-12-01T15:54:52.665Z,457.33333
2022-12-01T15:59:54.695Z,470.49573
2022-12-01T16:04:56.386Z,414.22901
2022-12-01T16:09:58.347Z,417.84615
2022-12-01T16:20:19.456Z,363.04762
2022-12-01T16:40:30.215Z,286.22222
2022-12-01T16:45:32.243Z,269.92593
2022-12-01T16:50:34.098Z,282.46154
2022-12-01T16:55:35.825Z,263.17098
2022-12-01T17:00:37.633Z,238.73684
2022-12-01T17:05:39.840Z,221.47748
2022-12-01T17:10:41.722Z,244.4878
2022-12-01T17:15:43.673Z,201.74059
2022-12-01T17:20:45.466Z,181.83784
2022-12-01T17:25:46.914Z,172.99628
2022-12-01T17:30:48.961Z,165.58273
2022-12-01T17:35:51.265Z,153.52381
2022-12-01T17:40:52.273Z,141.4359
2022-12-01T17:45:54.032Z,143.35275
2022-12-01T17:50:56.194Z,131.23404
2022-12-01T17:55:57.748Z,121.52161
2022-12-01T18:00:59.793Z,115.11111
2022-12-01T18:06:01.840Z,115.58774
2022-12-01T18:11:03.710Z,98
2022-12-01T18:16:05.590Z,116.06704
2022-12-01T18:21:07.526Z,118.50425
2022-12-01T18:26:15.132Z,120.5043
2022-12-01T18:31:17.397Z,118.0113
2022-12-01T18:36:19.120Z,123.06977
2022-12-01T18:41:20.733Z,152.10811
2022-12-01T18:46:22.301Z,142.07074
2022-12-01T18:51:23.913Z,149.33333
2022-12-01T18:56:25.617Z,141.4359
2022-12-01T19:01:27.256Z,138.93671
2022-12-01T19:06:28.961Z,144
2022-12-01T19:11:30.707Z,166.38267
2022-12-01T19:16:32.365Z,173.85075
2022-12-01T19:21:34.040Z,156.41379
2022-12-01T19:26:35.588Z,148.65116
2022-12-01T19:31:37.165Z,144
2022-12-01T19:36:38.854Z,137.10345
2022-12-01T19:41:40.278Z,134.12346
2022-12-01T19:46:41.817Z,127.8806
2022-12-01T19:51:43.536Z,134.12346
2022-12-01T19:56:45.359Z,129.54217
2022-12-01T20:01:47.225Z,128.43114
2022-12-01T20:06:49.310Z,125.17647
2022-12-01T20:11:51.082Z,122.03468
2022-12-01T20:16:53.110Z,120
2022-12-01T20:21:55.037Z,122.55072
2022-12-01T20:26:56.864Z,114.16575
2022-12-01T20:32:00.335Z,110.93767
2022-12-01T20:37:02.193Z,147.30033
2022-12-01T20:42:03.741Z,121.52161
2022-12-01T20:47:05.226Z,132.3792
2022-12-01T20:52:07.029Z,118.0113
2022-12-01T20:57:08.674Z,119.49858
2022-12-01T21:02:10.408Z,120
2022-12-01T21:07:12.393Z,120
2022-12-01T21:12:14.240Z,117.52113
2022-12-01T21:17:15.976Z,124.64516
2022-12-01T21:22:17.831Z,128.43114
2022-12-01T21:27:19.317Z,140.80511
2022-12-01T21:32:20.833Z,140.80511
2022-12-01T21:37:22.481Z,137.71069
2022-12-01T21:42:24.277Z,137.10345
2022-12-01T21:47:25.889Z,132.95706
2022-12-01T21:52:27.509Z,134.12346
2022-12-01T21:57:29.009Z,134.71207
2022-12-01T22:02:30.707Z,132.3792
2022-12-01T22:07:32.765Z,125.71091
2022-12-01T22:12:34.509Z,125.71091
2022-12-01T22:17:37.790Z,122.55072
2022-12-01T22:22:39.366Z,123.06977
2022-12-01T22:27:40.918Z,122.03468
2022-12-01T22:32:42.545Z,117.03371
2022-12-01T22:37:44.523Z,104
2022-12-01T22:42:46.465Z,98.77387
2022-12-01T22:47:48.299Z,97.23383
2022-12-01T22:52:50.133Z,96.09877
2022-12-01T22:57:51.883Z,94.98039
2022-12-01T23:02:53.407Z,93.87835
2022-12-01T23:07:55.229Z,92.07692
2022-12-01T23:12:56.800Z,91.36842
2022-12-01T23:17:58.391Z,91.72182
2022-12-01T23:23:00.224Z,91.36842
2022-12-01T23:28:01.997Z,95.35135
2022-12-01T23:33:03.411Z,96.09877
2022-12-01T23:38:05.263Z,102.76289
2022-12-01T23:43:07.045Z,104
2022-12-01T23:48:11.196Z,107.82979
2022-12-01T23:53:12.843Z,106.96296
2022-12-01T23:58:14.444Z,111.3913
